Time;durP1;ratioP1;P1;durP2;ratioP2;P2;SDS_P1;SDS_P2;PMS_P1;PMS_P2;Temp;Humidity;BMP_temperature;BMP_pressure;BME280_temperature;BME280_humidity;BME280_pressure;Samples;Min_cycle;Max_cycle;Signal;HPM_P1;HPM_P2
2022/12/15 00:40:57;;;;;;;2.60;1.85;;;;;;;15.74;69.64;100142.78;20711966;28;20073;-90
2022/12/15 00:50:59;;;;;;;2.15;1.55;;;;;;;16.00;69.41;100173.63;20711006;28;20045;-90
2022/12/15 01:21:48;;;;;;;1.80;1.60;;;;;;;15.89;69.29;100155.81;20695640;28;20053;-89
2022/12/15 01:31:50;;;;;;;1.88;1.67;;;;;;;15.71;69.22;100143.06;20692890;28;20050;-90
2022/12/15 01:41:51;;;;;;;2.53;1.88;;;;;;;15.86;69.19;100166.78;20708885;28;20453;-90
2022/12/15 01:51:58;;;;;;;1.63;1.50;;;;;;;15.98;69.11;100197.06;20709144;28;20045;-89
2022/12/15 02:02:01;;;;;;;1.92;1.60;;;;;;;15.63;69.13;100150.97;20701947;28;20054;-90
2022/12/15 02:12:27;;;;;;;1.92;1.58;;;;;;;15.97;69.08;100209.66;20712306;28;20058;-90
2022/12/15 02:22:38;;;;;;;2.42;1.58;;;;;;;15.97;68.96;100223.09;20721264;28;20507;-87
2022/12/15 02:32:46;;;;;;;2.03;1.70;;;;;;;15.97;68.76;100203.44;20720516;28;20045;-87
2022/12/15 02:42:51;;;;;;;2.10;1.80;;;;;;;15.94;68.80;100204.59;20703005;28;20055;-87
2022/12/15 02:53:23;;;;;;;2.05;1.60;;;;;;;15.96;68.93;100216.03;20701640;28;20046;-87
2022/12/15 03:03:25;;;;;;;1.92;1.58;;;;;;;15.95;68.84;100208.97;20718150;28;20103;-87
2022/12/15 03:13:26;;;;;;;2.97;1.98;;;;;;;15.95;68.74;100208.97;20635060;28;20050;-88
2022/12/15 03:23:28;;;;;;;2.10;1.48;;;;;;;15.97;68.52;100238.34;20633616;28;20046;-87
2022/12/15 03:33:32;;;;;;;1.80;1.65;;;;;;;15.76;68.68;100207.91;20632936;28;20073;-88
2022/12/15 03:43:34;;;;;;;2.75;1.55;;;;;;;15.63;68.48;100205.47;20633109;28;20051;-87
2022/12/15 03:53:36;;;;;;;1.60;1.50;;;;;;;15.95;68.59;100241.19;20630530;28;20054;-88
2022/12/15 04:03:37;;;;;;;1.63;1.50;;;;;;;15.95;68.55;100241.19;20631349;28;20145;-88
2022/12/15 04:13:39;;;;;;;1.55;1.45;;;;;;;15.95;68.47;100241.19;20703207;28;20476;-88
2022/12/15 05:36:11;;;;;;;1.58;1.20;;;;;;;16.25;69.43;100258.13;20604807;28;20050;-89
2022/12/15 05:46:16;;;;;;;2.20;1.58;;;;;;;16.14;69.78;100224.22;20625363;28;20054;-88
2022/12/15 05:56:17;;;;;;;1.53;1.43;;;;;;;16.26;70.00;100257.13;20604503;28;20137;-88
2022/12/15 06:06:19;;;;;;;1.17;1.05;;;;;;;16.38;69.90;100277.53;20636006;28;20050;-88
2022/12/15 06:16:22;;;;;;;3.28;1.70;;;;;;;16.23;70.03;100266.34;20611210;28;20054;-88
2022/12/15 06:26:27;;;;;;;2.00;1.25;;;;;;;16.45;70.07;100295.75;20620244;28;20061;-89
2022/12/15 06:36:29;;;;;;;2.00;1.43;;;;;;;16.22;70.15;100253.03;20621678;28;20105;-92
2022/12/15 06:46:33;;;;;;;1.20;1.10;;;;;;;16.51;70.21;100303.25;20620504;28;20106;-91
2022/12/15 06:56:35;;;;;;;2.53;1.45;;;;;;;16.22;70.08;100261.97;20637574;28;20129;-91
2022/12/15 07:06:37;;;;;;;1.90;1.38;;;;;;;16.53;70.17;100328.97;20674185;28;20133;-92
2022/12/15 07:16:39;;;;;;;1.60;1.30;;;;;;;16.56;70.09;100341.28;20699661;28;20406;-91
2022/12/15 07:26:42;;;;;;;1.15;1.05;;;;;;;16.57;70.08;100342.97;20682736;28;20125;-92
2022/12/15 07:36:43;;;;;;;1.88;1.30;;;;;;;16.58;70.08;100355.44;20715490;28;20104;-92
2022/12/15 07:46:52;;;;;;;1.70;1.33;;;;;;;16.60;70.09;100347.25;20699686;28;20380;-92
2022/12/15 07:56:53;;;;;;;2.70;1.55;;;;;;;16.63;70.22;100360.38;20696677;28;20049;-92
2022/12/15 08:06:56;;;;;;;1.45;1.30;;;;;;;16.63;70.07;100390.78;20682243;28;20045;-89
2022/12/15 08:16:57;;;;;;;1.67;1.40;;;;;;;16.65;70.23;100391.50;20695367;28;20045;-90
2022/12/15 08:26:59;;;;;;;1.42;1.10;;;;;;;16.67;70.16;100392.19;20695205;28;20050;-89
2022/12/15 08:37:00;;;;;;;1.55;1.10;;;;;;;16.68;70.13;100399.28;20711354;28;20506;-90
2022/12/15 08:47:02;;;;;;;1.52;1.33;;;;;;;16.71;70.29;100408.03;20711184;28;20068;-90
2022/12/15 08:57:04;;;;;;;1.83;1.20;;;;;;;16.72;70.10;100404.38;20708447;28;20064;-90
2022/12/15 09:07:05;;;;;;;1.45;1.35;;;;;;;16.74;70.09;100405.06;20710082;28;20506;-89
2022/12/15 09:17:07;;;;;;;0.93;0.90;;;;;;;16.76;69.98;100400.41;20709489;28;20421;-85
2022/12/15 09:27:08;;;;;;;2.05;1.17;;;;;;;16.76;70.04;100411.16;20725788;28;20062;-89
2022/12/15 09:37:10;;;;;;;1.20;1.10;;;;;;;16.78;70.03;100433.38;20707992;28;20048;-90
2022/12/15 09:47:45;;;;;;;1.98;1.30;;;;;;;16.71;70.03;100429.53;20723938;28;20149;-90
2022/12/15 09:57:51;;;;;;;1.27;1.00;;;;;;;16.79;69.87;100449.38;20686663;28;20116;-89
2022/12/15 10:07:57;;;;;;;1.10;1.00;;;;;;;16.80;69.88;100432.25;20723023;28;20041;-89
2022/12/15 10:18:20;;;;;;;1.10;1.00;;;;;;;16.81;70.07;100435.81;20702750;28;20399;-90
2022/12/15 10:28:50;;;;;;;1.10;1.00;;;;;;;16.83;70.01;100428.44;20703368;28;20057;-89
2022/12/15 10:38:51;;;;;;;1.02;0.88;;;;;;;16.82;69.98;100429.44;20701635;28;20052;-89
2022/12/15 10:49:05;;;;;;;1.15;0.88;;;;;;;16.82;69.88;100437.50;20699105;28;20392;-89
2022/12/15 10:59:33;;;;;;;2.05;1.08;;;;;;;16.84;70.03;100438.22;20625731;28;20137;-90
2022/12/15 11:09:36;;;;;;;1.10;1.00;;;;;;;16.86;69.86;100446.13;20621159;28;20038;-90
2022/12/15 11:19:58;;;;;;;1.13;1.00;;;;;;;16.86;69.93;100433.53;20618265;28;20499;-90
2022/12/15 11:30:21;;;;;;;1.52;1.30;;;;;;;16.86;69.84;100433.53;20597042;28;20137;-92
2022/12/15 11:40:42;;;;;;;1.17;1.08;;;;;;;16.88;69.75;100438.75;20609148;28;20046;-94
2022/12/15 11:50:51;;;;;;;1.30;1.13;;;;;;;16.87;69.59;100424.47;20618175;28;20695;-96
2022/12/15 12:01:21;;;;;;;1.30;0.85;;;;;;;16.72;69.45;100401.69;20647336;28;20629;-93
2022/12/15 12:11:43;;;;;;;1.60;1.02;;;;;;;16.90;69.19;100426.03;20587675;28;20088;-90
2022/12/15 12:21:51;;;;;;;1.10;0.90;;;;;;;16.90;68.89;100428.72;20585734;28;20518;-90
2022/12/15 12:31:52;;;;;;;2.03;1.20;;;;;;;16.90;68.86;100418.81;20589285;28;20403;-90
2022/12/15 12:42:12;;;;;;;0.98;0.75;;;;;;;16.68;68.93;100383.16;20606220;28;20112;-89
2022/12/15 12:52:28;;;;;;;3.40;0.90;;;;;;;16.77;68.75;100391.34;20604875;28;20065;-89
2022/12/15 13:02:30;;;;;;;0.90;0.80;;;;;;;16.92;68.67;100399.84;20584832;28;20054;-90
2022/12/15 13:12:45;;;;;;;0.90;0.80;;;;;;;16.93;68.67;100397.03;20617746;28;20085;-89
2022/12/15 13:22:55;;;;;;;1.13;0.90;;;;;;;16.93;68.57;100398.84;20600557;28;20050;-92
2022/12/15 13:33:16;;;;;;;1.15;0.90;;;;;;;16.60;68.21;100353.44;20574903;28;20097;-94
2022/12/15 13:43:26;;;;;;;1.20;1.10;;;;;;;16.89;67.71;100384.00;20606622;28;20046;-86
2022/12/15 13:53:36;;;;;;;1.40;0.90;;;;;;;16.74;67.89;100367.44;20621556;28;20102;-85
2022/12/15 14:03:39;;;;;;;1.17;0.93;;;;;;;16.55;68.11;100362.91;20597181;28;20054;-86
2022/12/15 14:13:42;;;;;;;0.77;0.77;;;;;;;16.56;68.37;100356.53;20618723;28;20145;-87
2022/12/15 14:23:44;;;;;;;1.40;1.05;;;;;;;16.52;68.73;100362.19;20579503;28;20079;-87
2022/12/15 14:34:12;;;;;;;1.25;1.00;;;;;;;16.61;68.37;100365.06;20615108;28;20058;-87
2022/12/15 14:44:26;;;;;;;1.38;0.88;;;;;;;16.49;68.36;100361.66;20601469;28;20137;-87
2022/12/15 14:54:50;;;;;;;1.27;0.90;;;;;;;16.29;68.48;100329.38;20602317;28;20065;-83
2022/12/15 15:05:02;;;;;;;1.30;0.95;;;;;;;16.46;68.44;100367.31;20610044;28;20054;-88
2022/12/15 15:15:05;;;;;;;1.65;1.25;;;;;;;16.55;68.24;100376.34;20601745;28;20058;-86
2022/12/15 15:25:31;;;;;;;1.40;1.02;;;;;;;16.55;67.72;100357.53;20614804;28;20059;-87
2022/12/15 15:35:41;;;;;;;1.00;0.88;;;;;;;16.51;67.91;100352.44;20586221;28;20189;-89
2022/12/15 15:45:43;;;;;;;1.30;1.10;;;;;;;16.22;68.04;100318.38;20581399;28;20058;-87
2022/12/15 15:55:45;;;;;;;1.90;1.10;;;;;;;16.48;67.99;100351.91;20574999;28;20053;-88
2022/12/15 16:05:47;;;;;;;2.42;1.20;;;;;;;16.45;68.02;100361.06;20568462;28;20595;-87
2022/12/15 16:15:49;;;;;;;1.92;1.27;;;;;;;16.45;68.69;100362.91;20579177;28;20046;-85
2022/12/15 16:25:55;;;;;;;2.95;1.50;;;;;;;16.45;68.29;100354.88;20572502;28;20061;-85
2022/12/15 16:35:57;;;;;;;2.25;1.27;;;;;;;16.44;68.33;100358.53;20573963;28;20051;-86
2022/12/15 16:46:00;;;;;;;1.75;1.23;;;;;;;16.43;68.53;100359.53;20564641;28;20579;-86
2022/12/15 16:56:04;;;;;;;3.20;1.70;;;;;;;16.42;68.61;100360.53;20570463;28;20134;-85
2022/12/15 17:06:06;;;;;;;3.22;1.35;;;;;;;16.11;68.78;100337.25;20584371;28;20061;-85
2022/12/15 17:16:10;;;;;;;2.50;1.40;;;;;;;16.40;68.64;100400.09;20567787;28;20104;-86
2022/12/15 17:26:17;;;;;;;1.83;1.38;;;;;;;16.41;68.76;100401.81;20551631;28;20057;-86
2022/12/15 17:36:28;;;;;;;1.75;1.33;;;;;;;16.40;68.81;100416.22;20556562;28;20050;-90
2022/12/15 17:46:30;;;;;;;1.85;1.15;;;;;;;16.39;69.02;100415.38;20592503;28;20057;-86
2022/12/15 17:56:31;;;;;;;1.40;1.23;;;;;;;16.40;69.09;100416.22;20589127;28;20054;-88
2022/12/15 18:06:33;;;;;;;1.65;1.40;;;;;;;16.37;69.02;100418.19;20630662;28;20055;-88
2022/12/15 18:16:34;;;;;;;2.00;1.73;;;;;;;16.37;69.05;100420.91;20638802;28;20050;-89
2022/12/15 18:26:36;;;;;;;1.85;1.20;;;;;;;16.38;68.92;100424.41;20639990;28;20050;-89
2022/12/15 18:36:38;;;;;;;3.47;1.55;;;;;;;16.36;69.25;100435.31;20638794;28;20058;-89
2022/12/15 18:46:40;;;;;;;2.10;1.48;;;;;;;16.01;69.41;100400.84;20635400;28;20066;-89
2022/12/15 18:56:48;;;;;;;2.55;1.20;;;;;;;16.07;69.21;100413.72;20702062;28;20140;-88
2022/12/15 19:06:50;;;;;;;1.58;1.27;;;;;;;16.37;69.24;100471.06;20718294;28;20129;-88
2022/12/15 19:27:12;;;;;;;2.30;1.40;;;;;;;16.35;69.04;100490.03;20716993;28;20054;-89
2022/12/15 19:37:26;;;;;;;1.63;1.33;;;;;;;16.35;69.10;100500.78;20682770;28;20044;-88
2022/12/15 19:47:28;;;;;;;1.58;1.38;;;;;;;16.16;69.20;100484.56;20684907;28;20149;-89
2022/12/15 19:57:30;;;;;;;2.78;1.60;;;;;;;16.36;69.18;100515.03;20713133;28;20053;-89
2022/12/15 20:07:32;;;;;;;3.08;1.27;;;;;;;16.36;69.10;100528.47;20714573;28;20061;-88
2022/12/15 20:17:33;;;;;;;2.10;1.48;;;;;;;16.34;68.97;100531.28;20679705;28;20074;-89
2022/12/15 20:27:35;;;;;;;2.80;1.67;;;;;;;16.29;69.21;100528.16;20694908;28;20072;-89
2022/12/15 20:37:36;;;;;;;2.25;1.40;;;;;;;16.34;69.05;100531.28;20711789;28;20049;-89
2022/12/15 20:47:39;;;;;;;1.33;1.20;;;;;;;16.35;69.04;100540.22;20678053;28;20054;-89
2022/12/15 20:57:40;;;;;;;3.55;1.52;;;;;;;16.34;69.06;100541.19;20693607;28;20570;-89
2022/12/15 21:07:42;;;;;;;2.08;1.60;;;;;;;15.74;69.05;100464.84;20724734;28;20046;-88
2022/12/15 21:17:44;;;;;;;2.35;1.52;;;;;;;16.24;69.07;100551.88;20709437;28;20045;-88
2022/12/15 21:27:45;;;;;;;1.55;1.42;;;;;;;16.31;69.14;100569.16;20725785;28;20113;-88
2022/12/15 21:37:48;;;;;;;1.83;1.38;;;;;;;16.34;69.18;100574.25;20723434;28;20533;-89
2022/12/15 21:58:18;;;;;;;2.95;2.05;;;;;;;16.33;69.02;100588.69;20626658;28;20049;-89
2022/12/15 22:08:23;;;;;;;2.05;1.50;;;;;;;16.33;69.14;100575.25;20639375;28;20046;-89
2022/12/15 22:18:24;;;;;;;1.90;1.60;;;;;;;16.29;68.95;100571.13;20634062;28;20061;-89
2022/12/15 22:28:27;;;;;;;2.17;1.60;;;;;;;16.31;69.18;100593.34;20620226;28;20137;-89
2022/12/15 22:38:29;;;;;;;2.88;1.75;;;;;;;16.32;69.15;100603.09;20609995;28;20050;-89
2022/12/15 22:48:36;;;;;;;2.50;1.70;;;;;;;16.32;69.08;100608.47;20635624;28;20464;-89
2022/12/15 22:58:40;;;;;;;2.05;1.67;;;;;;;16.31;69.08;100593.34;20618916;28;20057;-90
2022/12/15 23:08:42;;;;;;;2.63;1.73;;;;;;;16.01;68.89;100549.38;20634279;28;20574;-89
2022/12/15 23:18:44;;;;;;;1.55;1.45;;;;;;;16.02;69.14;100559.13;20632519;28;20507;-89
2022/12/15 23:28:45;;;;;;;2.08;1.67;;;;;;;16.14;68.73;100567.09;20633524;28;20050;-88
2022/12/15 23:38:47;;;;;;;2.10;1.70;;;;;;;16.32;68.92;100613.84;20647341;28;20133;-88
2022/12/15 23:48:48;;;;;;;2.03;1.55;;;;;;;16.31;68.91;100619.38;20631684;28;20502;-89
2022/12/15 23:58:57;;;;;;;2.08;1.52;;;;;;;16.31;68.88;100638.16;20537033;28;20055;-89
